createdAt,value
2023-05-25T00:04:33.729Z,69.77
2023-05-25T00:27:15.419Z,70.15
2023-05-25T00:29:16.775Z,70.19
2023-05-25T00:31:43.386Z,72.30
2023-05-25T00:44:41.836Z,70.37
2023-05-25T00:47:26.118Z,70.38
2023-05-25T00:49:52.804Z,70.23
2023-05-25T00:52:19.545Z,69.93
2023-05-25T00:54:48.101Z,70.63
2023-05-25T00:57:17.658Z,69.82
2023-05-25T01:00:25.240Z,70.23
2023-05-25T01:03:40.774Z,70.50
2023-05-25T01:10:06.144Z,71.43
2023-05-25T01:26:47.037Z,70.47
2023-05-25T01:29:46.575Z,70.85
2023-05-25T01:33:07.879Z,71.67
2023-05-25T01:39:15.611Z,70.81
2023-05-25T01:52:56.267Z,71.81
2023-05-25T01:55:36.297Z,70.64
2023-05-25T01:58:28.299Z,70.68
2023-05-25T02:05:29.425Z,71.19
2023-05-25T02:14:59.323Z,70.99
2023-05-25T02:17:53.281Z,71.96
2023-05-25T02:21:02.470Z,71.58
2023-05-25T02:23:39.259Z,71.10
2023-05-25T02:26:49.679Z,71.25
2023-05-25T02:29:54.879Z,70.82
2023-05-25T02:33:18.107Z,72.05
2023-05-25T02:49:59.958Z,73.33
2023-05-25T02:55:40.712Z,70.65
2023-05-25T02:59:03.985Z,70.85
2023-05-25T03:07:49.567Z,72.63
2023-05-25T03:14:15.358Z,71.31
2023-05-25T03:16:49.634Z,72.25
2023-05-25T03:22:43.989Z,72.04
2023-05-25T03:32:19.906Z,72.22
2023-05-25T03:34:46.612Z,71.61
2023-05-25T03:38:04.941Z,70.93
2023-05-25T03:40:42.372Z,71.27
2023-05-25T03:43:52.920Z,71.55
2023-05-25T03:46:45.877Z,71.45
2023-05-25T03:49:45.175Z,71.88
2023-05-25T03:52:31.861Z,71.10
2023-05-25T03:55:34.437Z,71.73
2023-05-25T03:59:32.746Z,71.53
2023-05-25T04:05:36.432Z,72.62
2023-05-25T04:08:08.679Z,71.63
2023-05-25T04:10:38.238Z,72.12
2023-05-25T04:13:04.902Z,71.51
2023-05-25T04:15:31.762Z,71.05
2023-05-25T04:18:08.900Z,71.09
2023-05-25T04:20:36.000Z,70.04
2023-05-25T04:23:03.064Z,70.47
2023-05-25T04:25:29.970Z,69.58
2023-05-25T04:27:58.027Z,69.04
2023-05-25T04:30:43.395Z,69.39
2023-05-25T04:33:29.882Z,68.96
2023-05-25T04:36:02.262Z,69.28
2023-05-25T04:38:30.826Z,68.37
2023-05-25T04:41:02.210Z,67.60
2023-05-25T04:43:30.043Z,68.91
2023-05-25T04:45:59.755Z,68.25
2023-05-25T04:48:32.659Z,67.28
2023-05-25T04:51:03.054Z,66.72
2023-05-25T04:53:32.367Z,67.49
2023-05-25T04:55:59.076Z,66.26
2023-05-25T04:58:25.693Z,64.92
2023-05-25T05:00:52.960Z,63.96
2023-05-25T05:03:19.734Z,64.71
2023-05-25T05:05:46.939Z,65.26
2023-05-25T05:08:19.241Z,62.73
2023-05-25T05:10:46.042Z,63.30
2023-05-25T05:13:14.087Z,62.74
2023-05-25T05:15:41.088Z,61.49
2023-05-25T05:18:08.745Z,61.54
2023-05-25T05:20:37.455Z,61.73
2023-05-25T05:23:04.114Z,60.48
2023-05-25T05:25:30.841Z,60.48
2023-05-25T05:27:57.664Z,63.10
2023-05-25T05:30:28.711Z,62.26
2023-05-25T05:32:56.270Z,63.76
2023-05-25T05:35:27.096Z,61.54
2023-05-25T05:38:03.009Z,61.54
2023-05-25T05:40:29.689Z,61.45
2023-05-25T05:42:56.457Z,60.49
2023-05-25T05:45:23.258Z,58.89
2023-05-25T05:47:50.126Z,57.81
2023-05-25T05:50:17.364Z,56.79
2023-05-25T05:52:44.219Z,56.50
2023-05-25T05:55:11.191Z,57.69
2023-05-25T05:57:40.085Z,56.93
2023-05-25T06:00:07.460Z,55.28
2023-05-25T06:02:42.233Z,52.24
2023-05-25T06:05:14.434Z,53.38
2023-05-25T06:07:42.755Z,48.78
2023-05-25T06:10:09.799Z,47.40
2023-05-25T06:12:36.659Z,46.19
2023-05-25T06:15:03.709Z,46.58
2023-05-25T06:17:30.539Z,46.54
2023-05-25T06:19:57.277Z,46.25
2023-05-25T06:22:27.856Z,45.14
2023-05-25T06:24:56.143Z,46.96
2023-05-25T06:27:23.565Z,47.75
2023-05-25T06:29:50.387Z,49.88
2023-05-25T06:32:17.225Z,50.83
2023-05-25T06:34:43.941Z,48.07
2023-05-25T06:37:10.915Z,48.01
2023-05-25T06:39:38.930Z,49.29
2023-05-25T06:42:06.021Z,49.92
2023-05-25T06:44:36.837Z,48.16
2023-05-25T06:47:08.260Z,47.74
2023-05-25T06:49:34.945Z,45.21
2023-05-25T06:52:01.771Z,45.03
2023-05-25T06:54:28.380Z,43.45
2023-05-25T06:56:55.048Z,42.82
2023-05-25T06:59:21.615Z,43.53
2023-05-25T07:01:48.909Z,41.49
2023-05-25T07:04:18.133Z,42.11
2023-05-25T07:06:44.737Z,40.56
2023-05-25T07:09:12.814Z,40.39
2023-05-25T07:11:39.387Z,38.39
2023-05-25T07:14:06.119Z,41.32
2023-05-25T07:16:33.197Z,40.80
2023-05-25T07:19:00.572Z,39.78
2023-05-25T07:21:27.789Z,39.48
2023-05-25T07:23:54.375Z,38.45
2023-05-25T07:26:23.036Z,37.49
2023-05-25T07:28:49.639Z,35.44
2023-05-25T07:31:16.531Z,35.00
2023-05-25T07:33:43.710Z,32.05
2023-05-25T07:36:10.588Z,31.86
2023-05-25T07:38:37.282Z,33.89
2023-05-25T07:41:06.433Z,34.60
2023-05-25T07:43:33.184Z,32.34
2023-05-25T07:46:01.914Z,30.96
2023-05-25T07:48:28.484Z,33.71
2023-05-25T07:50:55.182Z,33.38
2023-05-25T07:53:21.866Z,34.14
2023-05-25T07:55:48.718Z,32.98
2023-05-25T07:58:15.643Z,31.83
2023-05-25T08:00:43.761Z,30.60
2023-05-25T08:03:11.114Z,29.18
2023-05-25T08:05:37.939Z,29.86
2023-05-25T08:08:04.610Z,28.49
2023-05-25T08:10:34.642Z,26.15
2023-05-25T08:13:01.317Z,27.24
2023-05-25T08:15:27.966Z,29.14
2023-05-25T08:17:56.587Z,27.38
2023-05-25T08:20:24.931Z,30.04
2023-05-25T08:22:53.537Z,26.65
2023-05-25T08:25:20.796Z,27.16
2023-05-25T08:27:47.676Z,27.49
2023-05-25T08:30:14.414Z,29.36
2023-05-25T08:32:41.122Z,28.29
2023-05-25T08:35:08.187Z,26.52
2023-05-25T08:37:35.599Z,27.31
2023-05-25T08:40:02.717Z,27.74
2023-05-25T08:42:29.971Z,29.37
2023-05-25T08:44:56.937Z,27.34
2023-05-25T08:47:24.027Z,29.51
2023-05-25T08:49:52.808Z,27.89
2023-05-25T08:52:23.507Z,27.44
2023-05-25T08:54:53.993Z,27.56
2023-05-25T08:57:29.269Z,27.27
2023-05-25T09:00:12.183Z,26.58
2023-05-25T09:02:58.124Z,28.71
2023-05-25T09:05:25.475Z,26.93
2023-05-25T09:07:54.760Z,26.40
2023-05-25T09:10:23.830Z,26.00
2023-05-25T09:12:52.075Z,25.11
2023-05-25T09:15:19.071Z,23.94
2023-05-25T09:17:45.762Z,24.25
2023-05-25T09:20:15.780Z,24.09
2023-05-25T09:22:43.981Z,23.43
2023-05-25T09:25:11.843Z,25.55
2023-05-25T09:27:38.852Z,28.33
2023-05-25T09:30:06.637Z,26.89
2023-05-25T09:32:33.621Z,26.83
2023-05-25T09:35:11.186Z,27.01
2023-05-25T09:37:37.951Z,29.50
2023-05-25T09:40:06.387Z,29.70
2023-05-25T09:42:37.074Z,31.07
2023-05-25T09:45:04.951Z,30.71
2023-05-25T09:47:31.800Z,31.97
2023-05-25T09:49:59.212Z,32.13
2023-05-25T09:52:26.087Z,31.88
2023-05-25T09:54:52.679Z,32.36
2023-05-25T09:57:20.452Z,33.44
2023-05-25T09:59:47.324Z,34.80
2023-05-25T10:02:15.474Z,33.92
2023-05-25T10:04:42.220Z,34.49
2023-05-25T10:07:09.477Z,34.96
2023-05-25T10:09:41.733Z,35.92
2023-05-25T10:12:09.210Z,36.14
2023-05-25T10:14:40.569Z,36.42
2023-05-25T10:17:10.226Z,36.82
2023-05-25T10:19:54.970Z,36.56
2023-05-25T10:22:51.211Z,38.34
2023-05-25T10:25:48.692Z,36.29
2023-05-25T10:28:39.456Z,36.73
2023-05-25T10:31:07.177Z,34.99
2023-05-25T10:33:34.378Z,34.93
2023-05-25T10:36:10.619Z,36.02
2023-05-25T10:38:40.056Z,36.05
2023-05-25T10:41:09.546Z,37.02
2023-05-25T10:43:36.625Z,35.37
2023-05-25T10:46:04.274Z,36.85
2023-05-25T10:48:48.484Z,34.93
2023-05-25T10:51:15.297Z,36.19
2023-05-25T10:53:46.252Z,35.12
2023-05-25T10:56:14.316Z,35.13
2023-05-25T10:58:44.022Z,34.46
2023-05-25T11:01:13.261Z,35.57
2023-05-25T11:03:53.684Z,34.90
2023-05-25T11:06:22.216Z,36.39
2023-05-25T11:08:56.480Z,36.70
2023-05-25T11:11:43.015Z,37.04
2023-05-25T11:14:23.732Z,36.86
2023-05-25T11:17:10.314Z,37.45
2023-05-25T11:19:52.165Z,37.05
2023-05-25T11:22:23.269Z,36.76
2023-05-25T11:24:53.846Z,36.53
2023-05-25T11:27:45.660Z,37.34
2023-05-25T11:30:13.365Z,35.95
2023-05-25T11:32:49.038Z,36.41
2023-05-25T11:35:16.031Z,36.28
2023-05-25T11:37:50.750Z,37.25
2023-05-25T11:40:17.415Z,35.73
2023-05-25T11:42:48.288Z,36.06
2023-05-25T11:45:15.010Z,35.40
2023-05-25T11:47:41.778Z,36.81
2023-05-25T11:50:17.226Z,36.87
2023-05-25T11:52:43.958Z,36.07
2023-05-25T11:55:13.297Z,34.60
2023-05-25T11:57:40.628Z,35.66
2023-05-25T12:00:11.275Z,35.51
2023-05-25T12:02:41.981Z,35.82
2023-05-25T12:05:11.014Z,35.60
2023-05-25T12:07:44.610Z,35.47
2023-05-25T12:10:13.407Z,35.46
2023-05-25T12:12:50.894Z,35.31
2023-05-25T12:15:25.690Z,35.39
2023-05-25T12:17:54.291Z,35.60
2023-05-25T12:20:21.812Z,36.94
2023-05-25T12:22:48.995Z,34.60
2023-05-25T12:25:19.971Z,35.09
2023-05-25T12:27:46.621Z,35.25
2023-05-25T12:30:13.454Z,35.41
2023-05-25T12:33:02.897Z,36.42
2023-05-25T12:35:43.898Z,35.47
2023-05-25T12:38:12.033Z,36.24
2023-05-25T12:40:38.699Z,35.74
2023-05-25T12:43:05.556Z,36.35
2023-05-25T12:45:32.273Z,35.98
2023-05-25T12:48:00.118Z,34.33
2023-05-25T12:50:29.410Z,35.35
2023-05-25T12:53:02.387Z,35.84
2023-05-25T12:55:34.341Z,37.20
2023-05-25T12:58:03.022Z,35.66
2023-05-25T13:00:37.624Z,35.68
2023-05-25T13:03:07.562Z,36.22
2023-05-25T13:05:36.637Z,35.86
2023-05-25T13:08:05.336Z,35.63
2023-05-25T13:10:33.221Z,36.01
2023-05-25T13:13:00.825Z,35.70
2023-05-25T13:15:28.098Z,35.37
2023-05-25T13:17:56.409Z,36.37
2023-05-25T13:20:25.406Z,34.85
2023-05-25T13:22:53.806Z,38.71
2023-05-25T13:25:22.327Z,35.95
2023-05-25T13:27:52.893Z,37.94
2023-05-25T13:30:22.827Z,36.11
2023-05-25T13:32:51.701Z,34.39
2023-05-25T13:35:23.962Z,35.55
2023-05-25T13:37:51.285Z,35.13
2023-05-25T13:40:18.412Z,35.59
2023-05-25T13:42:45.150Z,35.84
2023-05-25T13:45:11.837Z,36.98
2023-05-25T13:47:38.828Z,35.27
2023-05-25T13:50:06.214Z,35.26
2023-05-25T13:52:33.176Z,35.33
2023-05-25T13:54:59.770Z,35.63
2023-05-25T13:57:26.417Z,36.19
2023-05-25T13:59:53.037Z,35.46
2023-05-25T14:02:19.819Z,35.91
2023-05-25T14:04:46.503Z,36.54
2023-05-25T14:07:13.187Z,35.24
2023-05-25T14:09:39.894Z,35.92
2023-05-25T14:12:06.895Z,36.55
2023-05-25T14:14:33.754Z,36.36
2023-05-25T14:17:01.496Z,36.67
2023-05-25T14:19:28.456Z,36.64
2023-05-25T14:24:24.854Z,36.64
2023-05-25T14:26:51.583Z,35.90
2023-05-25T14:29:18.325Z,36.32
2023-05-25T14:31:45.094Z,35.51
2023-05-25T14:34:11.691Z,35.83
2023-05-25T14:36:38.238Z,35.25
2023-05-25T14:39:04.762Z,35.99
2023-05-25T14:41:31.362Z,36.73
2023-05-25T14:43:57.948Z,35.91
2023-05-25T14:46:24.618Z,36.05
2023-05-25T14:48:51.183Z,35.87
2023-05-25T14:51:17.853Z,36.62
2023-05-25T14:53:45.057Z,37.29
2023-05-25T14:56:11.624Z,35.91
2023-05-25T14:58:38.227Z,37.30
2023-05-25T15:01:04.993Z,37.02
2023-05-25T15:03:32.527Z,36.17
2023-05-25T15:05:59.192Z,36.78
2023-05-25T15:08:26.010Z,36.12
2023-05-25T15:10:52.748Z,36.17
2023-05-25T15:13:22.403Z,37.01
2023-05-25T15:15:52.002Z,36.99
2023-05-25T15:18:18.850Z,35.81
2023-05-25T15:20:45.592Z,36.04
2023-05-25T15:23:12.224Z,36.32
2023-05-25T15:25:38.965Z,35.50
2023-05-25T15:28:05.769Z,35.01
2023-05-25T15:30:34.141Z,34.85
2023-05-25T15:33:01.770Z,35.27
2023-05-25T15:35:32.136Z,35.53
2023-05-25T15:37:59.718Z,36.12
2023-05-25T15:40:26.838Z,36.00
2023-05-25T15:42:53.709Z,36.22
2023-05-25T15:45:20.516Z,35.35
2023-05-25T15:47:47.272Z,35.96
2023-05-25T15:50:13.988Z,35.98
2023-05-25T15:52:41.527Z,36.15
2023-05-25T15:55:08.853Z,35.99
2023-05-25T15:57:35.482Z,35.23
2023-05-25T16:00:02.398Z,35.77
2023-05-25T16:02:32.536Z,35.74
2023-05-25T16:04:59.270Z,35.97
2023-05-25T16:07:25.868Z,36.47
2023-05-25T16:09:52.545Z,36.45
2023-05-25T16:12:19.356Z,36.84
2023-05-25T16:14:46.078Z,37.96
2023-05-25T16:17:12.905Z,36.88
2023-05-25T16:19:39.560Z,37.01
2023-05-25T16:22:06.148Z,36.97
2023-05-25T16:24:32.707Z,37.49
2023-05-25T16:26:59.367Z,37.59
2023-05-25T16:29:26.275Z,38.10
2023-05-25T16:31:54.865Z,38.03
2023-05-25T16:34:22.097Z,38.10
2023-05-25T16:36:48.906Z,37.63
2023-05-25T16:39:15.592Z,37.95
2023-05-25T16:41:42.415Z,38.04
2023-05-25T16:44:11.440Z,37.51
2023-05-25T16:46:38.609Z,38.62
2023-05-25T16:49:05.861Z,37.85
2023-05-25T16:51:32.536Z,38.40
2023-05-25T16:53:59.184Z,38.91
2023-05-25T16:56:26.358Z,38.97
2023-05-25T16:58:53.095Z,38.82
2023-05-25T17:01:19.802Z,39.26
2023-05-25T17:03:46.692Z,39.85
2023-05-25T17:06:13.749Z,39.63
2023-05-25T17:08:40.376Z,39.77
2023-05-25T17:11:06.939Z,39.26
2023-05-25T17:13:33.883Z,40.10
2023-05-25T17:16:00.588Z,40.23
2023-05-25T17:18:27.181Z,39.67
2023-05-25T17:20:54.018Z,40.62
2023-05-25T17:23:21.959Z,40.10
2023-05-25T17:25:48.792Z,40.73
2023-05-25T17:28:15.352Z,40.50
2023-05-25T17:30:41.924Z,41.43
2023-05-25T17:33:08.599Z,40.64
2023-05-25T17:35:35.483Z,40.56
2023-05-25T17:38:02.091Z,40.42
2023-05-25T17:40:28.718Z,40.66
2023-05-25T17:42:55.309Z,41.30
2023-05-25T17:45:21.969Z,41.75
2023-05-25T17:47:48.655Z,41.81
2023-05-25T17:50:15.385Z,41.82
2023-05-25T17:52:42.543Z,41.54
2023-05-25T17:55:09.452Z,41.56
2023-05-25T17:57:36.366Z,41.82
2023-05-25T18:00:12.586Z,41.57
2023-05-25T18:03:23.798Z,41.72
2023-05-25T18:05:53.956Z,42.17
2023-05-25T18:08:53.051Z,42.65
2023-05-25T18:11:45.238Z,42.66
2023-05-25T18:14:24.665Z,42.76
2023-05-25T18:17:04.187Z,42.88
2023-05-25T18:19:59.170Z,43.00
2023-05-25T18:23:02.588Z,42.80
2023-05-25T18:25:42.754Z,42.34
2023-05-25T18:28:19.548Z,44.31
2023-05-25T18:30:55.430Z,42.97
2023-05-25T18:36:18.979Z,45.62
2023-05-25T18:38:59.471Z,47.51
2023-05-25T18:41:50.000Z,46.80
2023-05-25T18:44:54.484Z,47.26
2023-05-25T18:47:38.708Z,48.82
2023-05-25T18:50:57.031Z,49.08
2023-05-25T18:53:28.233Z,49.11
2023-05-25T18:56:15.574Z,50.29
2023-05-25T18:58:44.864Z,50.67
2023-05-25T19:01:39.544Z,51.10
2023-05-25T19:04:21.048Z,50.71
2023-05-25T19:07:01.603Z,51.16
2023-05-25T19:12:38.590Z,51.70
2023-05-25T19:22:54.527Z,49.92
2023-05-25T19:25:47.936Z,50.56
2023-05-25T19:28:48.500Z,51.82
2023-05-25T19:32:05.107Z,51.40
2023-05-25T19:35:47.787Z,51.53
2023-05-25T19:39:05.229Z,52.11
2023-05-25T19:41:58.003Z,52.67
2023-05-25T19:44:43.325Z,53.42
2023-05-25T19:47:21.657Z,54.09
2023-05-25T19:49:54.024Z,54.22
2023-05-25T19:52:38.352Z,54.69
2023-05-25T19:55:18.218Z,54.82
2023-05-25T20:01:28.656Z,54.99
2023-05-25T20:04:54.974Z,56.93
2023-05-25T20:08:04.548Z,56.24
2023-05-25T20:11:04.117Z,56.88
2023-05-25T20:14:02.294Z,58.02
2023-05-25T20:17:05.397Z,58.74
2023-05-25T20:20:44.601Z,58.52
2023-05-25T20:26:36.106Z,58.16
2023-05-25T20:32:53.958Z,58.71
2023-05-25T20:35:27.116Z,58.54
2023-05-25T20:38:34.097Z,58.56
2023-05-25T20:41:27.032Z,59.44
2023-05-25T20:44:43.936Z,58.96
2023-05-25T20:55:11.620Z,60.98
2023-05-25T20:58:09.447Z,61.43
2023-05-25T21:03:52.946Z,61.70
2023-05-25T21:06:58.180Z,61.27
2023-05-25T21:09:34.407Z,61.44
2023-05-25T21:12:17.105Z,61.97
2023-05-25T21:14:54.176Z,61.48
2023-05-25T21:17:40.993Z,60.53
2023-05-25T21:20:44.040Z,60.97
2023-05-25T21:24:27.244Z,61.49
2023-05-25T21:33:43.365Z,62.08
2023-05-25T21:36:25.492Z,62.05
2023-05-25T21:42:56.427Z,62.21
2023-05-25T21:49:28.541Z,63.34
2023-05-25T21:52:24.858Z,63.27
2023-05-25T21:55:12.984Z,62.94
2023-05-25T21:58:21.497Z,63.36
2023-05-25T22:00:59.344Z,63.06
2023-05-25T22:03:31.145Z,62.55
2023-05-25T22:13:28.756Z,62.85
2023-05-25T22:22:07.793Z,63.62
2023-05-25T22:23:18.698Z,61.25
2023-05-25T22:33:06.463Z,60.55
2023-05-25T22:36:13.282Z,61.10
2023-05-25T22:42:50.101Z,61.72
2023-05-25T22:46:19.561Z,61.28
2023-05-25T22:49:44.026Z,62.00
2023-05-25T22:56:36.550Z,62.90
2023-05-25T23:04:49.062Z,62.40
2023-05-25T23:10:23.575Z,63.49
2023-05-25T23:21:00.984Z,65.74
2023-05-25T23:24:11.846Z,65.12
2023-05-25T23:31:16.998Z,65.55
2023-05-25T23:44:45.168Z,66.69
